Time;durP1;ratioP1;P1;durP2;ratioP2;P2;SDS_P1;SDS_P2;PMS_P1;PMS_P2;Temp;Humidity;BMP_temperature;BMP_pressure;BME280_temperature;BME280_humidity;BME280_pressure;Samples;Min_cycle;Max_cycle;Signal;HPM_P1;HPM_P2
2022/05/19 00:00:00;;;;;;;5.03;2.70;;;13.40;93.50;;;;;;4195701;28;20687;-71
2022/05/19 00:02:02;;;;;;;4.10;3.00;;;13.40;93.40;;;;;;4195500;28;20540;-71
2022/05/19 00:04:03;;;;;;;5.00;3.20;;;13.40;93.20;;;;;;4195824;28;20175;-70
2022/05/19 00:06:05;;;;;;;6.90;3.37;;;13.40;93.40;;;;;;4194924;28;20215;-71
2022/05/19 00:08:06;;;;;;;3.83;3.40;;;13.40;93.30;;;;;;4195670;28;20254;-70
2022/05/19 00:10:07;;;;;;;4.57;3.33;;;13.40;93.60;;;;;;4195792;28;20691;-71
2022/05/19 00:12:17;;;;;;;6.70;4.77;;;13.30;93.50;;;;;;4195123;28;20541;-71
2022/05/19 00:14:18;;;;;;;6.27;4.10;;;13.20;93.60;;;;;;4195693;28;20546;-71
2022/05/19 00:16:18;;;;;;;5.50;4.10;;;13.20;94.00;;;;;;4195096;28;20181;-71
2022/05/19 00:18:19;;;;;;;4.73;3.83;;;13.20;94.00;;;;;;4195511;28;20245;-71
2022/05/19 00:20:20;;;;;;;6.93;4.33;;;13.10;94.00;;;;;;4195707;28;20665;-71
2022/05/19 00:22:21;;;;;;;5.13;3.50;;;13.10;94.40;;;;;;4195535;28;20324;-70
2022/05/19 00:24:22;;;;;;;6.10;3.90;;;13.00;94.40;;;;;;4196648;28;20180;-70
2022/05/19 00:26:22;;;;;;;6.23;4.17;;;13.00;94.60;;;;;;4195150;28;20247;-70
2022/05/19 00:28:23;;;;;;;8.67;4.30;;;13.00;94.70;;;;;;4195781;28;20682;-70
2022/05/19 00:30:23;;;;;;;6.77;3.77;;;13.00;94.70;;;;;;4195777;28;20188;-70
2022/05/19 00:32:24;;;;;;;5.10;3.83;;;12.90;94.90;;;;;;4195742;28;20203;-70
2022/05/19 00:34:25;;;;;;;7.10;4.07;;;12.90;95.00;;;;;;4195609;28;20838;-70
2022/05/19 00:36:26;;;;;;;5.97;3.87;;;12.80;94.90;;;;;;4195110;28;20179;-70
2022/05/19 00:38:27;;;;;;;5.47;3.70;;;12.80;95.20;;;;;;4195748;28;20215;-70
2022/05/19 00:40:27;;;;;;;4.03;3.37;;;12.80;95.40;;;;;;4195570;28;20669;-70
2022/05/19 00:42:46;;;;;;;5.73;3.57;;;12.80;95.30;;;;;;4195893;28;20195;-70
2022/05/19 00:44:46;;;;;;;5.00;3.47;;;12.80;95.30;;;;;;4196174;28;20531;-70
2022/05/19 00:46:53;;;;;;;5.07;3.80;;;12.80;96.00;;;;;;4195069;28;20188;-70
2022/05/19 00:49:06;;;;;;;4.87;3.20;;;12.80;95.30;;;;;;4195884;28;20207;-70
2022/05/19 00:51:09;;;;;;;3.93;3.13;;;12.60;95.90;;;;;;4195786;28;20187;-70
2022/05/19 00:53:20;;;;;;;4.53;3.13;;;12.60;96.40;;;;;;4195413;28;20199;-70
2022/05/19 00:55:29;;;;;;;5.90;3.90;;;12.60;96.60;;;;;;4194824;28;20182;-70
2022/05/19 00:57:33;;;;;;;6.73;3.13;;;12.50;96.50;;;;;;4196002;28;20201;-70
2022/05/19 00:59:42;;;;;;;5.33;3.30;;;12.50;96.50;;;;;;4195555;28;20175;-70
2022/05/19 01:01:44;;;;;;;4.33;3.93;;;12.50;96.60;;;;;;4195474;28;20241;-70
2022/05/19 01:03:52;;;;;;;4.53;3.20;;;12.40;96.70;;;;;;4195236;28;20217;-70
2022/05/19 01:06:03;;;;;;;5.87;3.57;;;12.30;97.30;;;;;;4194601;28;20174;-70
2022/05/19 01:08:12;;;;;;;5.20;3.70;;;12.30;97.30;;;;;;4193929;28;20744;-70
2022/05/19 01:10:13;;;;;;;3.80;3.40;;;12.30;97.20;;;;;;4195164;28;20182;-70
2022/05/19 01:12:14;;;;;;;4.43;3.60;;;12.20;97.30;;;;;;4194753;28;20215;-70
2022/05/19 01:14:15;;;;;;;4.77;3.47;;;12.20;97.50;;;;;;4195078;28;20176;-70
2022/05/19 01:16:15;;;;;;;3.97;3.43;;;12.20;97.60;;;;;;4194539;28;20187;-70
2022/05/19 01:18:17;;;;;;;4.17;3.50;;;12.20;97.70;;;;;;4210420;28;20197;-70
2022/05/19 01:20:22;;;;;;;4.90;3.50;;;12.20;97.70;;;;;;4195253;28;20195;-70
2022/05/19 01:22:49;;;;;;;4.33;3.23;;;12.20;97.60;;;;;;4195403;28;20222;-70
2022/05/19 01:25:15;;;;;;;3.63;3.03;;;12.20;97.60;;;;;;4198070;28;20176;-70
2022/05/19 01:27:16;;;;;;;5.70;3.67;;;12.20;97.50;;;;;;4197854;28;20164;-70
2022/05/19 01:29:22;;;;;;;4.90;3.30;;;12.20;97.30;;;;;;4198332;28;20205;-70
2022/05/19 01:31:51;;;;;;;4.43;3.40;;;12.20;97.40;;;;;;4198255;28;20208;-70
2022/05/19 01:33:52;;;;;;;4.27;3.40;;;12.20;97.40;;;;;;4198099;28;20214;-70
2022/05/19 01:35:52;;;;;;;3.77;3.23;;;12.20;97.40;;;;;;4197494;28;20176;-70
2022/05/19 01:37:53;;;;;;;4.13;3.57;;;12.10;97.70;;;;;;4197931;28;20186;-70
2022/05/19 01:40:02;;;;;;;3.60;3.07;;;12.10;97.70;;;;;;4198080;28;20214;-70
2022/05/19 01:42:36;;;;;;;4.47;3.33;;;12.00;97.90;;;;;;4197829;28;20209;-70
2022/05/19 01:44:50;;;;;;;4.80;3.63;;;12.00;98.20;;;;;;4198105;28;20173;-70
2022/05/19 01:46:59;;;;;;;4.37;3.57;;;12.00;98.20;;;;;;4195904;28;20574;-71
2022/05/19 01:49:10;;;;;;;4.33;3.57;;;11.90;98.30;;;;;;4197890;28;20170;-71
2022/05/19 01:51:33;;;;;;;4.97;3.57;;;11.90;98.30;;;;;;4197670;28;20210;-70
2022/05/19 01:54:03;;;;;;;5.40;3.60;;;12.00;98.50;;;;;;4197650;28;20213;-70
2022/05/19 01:56:10;;;;;;;5.13;3.67;;;12.00;98.50;;;;;;4162463;28;20606;-70
2022/05/19 01:58:30;;;;;;;5.10;3.47;;;11.90;98.30;;;;;;4197711;28;20274;-71
2022/05/19 02:00:31;;;;;;;4.27;3.27;;;11.80;98.80;;;;;;4197828;28;20180;-70
2022/05/19 02:02:48;;;;;;;5.13;3.50;;;11.80;98.90;;;;;;4198007;28;20206;-71
2022/05/19 02:04:52;;;;;;;3.70;3.17;;;11.80;99.10;;;;;;4196423;28;20237;-71
2022/05/19 02:07:02;;;;;;;3.97;3.57;;;11.80;99.20;;;;;;4196228;28;20175;-71
2022/05/19 02:09:23;;;;;;;5.60;3.80;;;11.80;99.20;;;;;;4197212;28;20256;-70
2022/05/19 02:11:29;;;;;;;4.40;3.63;;;11.80;99.20;;;;;;4197501;28;20195;-71
2022/05/19 02:13:32;;;;;;;4.37;3.27;;;11.70;98.80;;;;;;4197231;28;20532;-71
2022/05/19 02:15:42;;;;;;;3.37;3.07;;;11.70;98.90;;;;;;4196580;28;20273;-71
2022/05/19 02:17:44;;;;;;;6.60;3.93;;;11.70;99.10;;;;;;4196995;28;20179;-70
2022/05/19 02:19:48;;;;;;;4.73;3.40;;;11.70;99.10;;;;;;4197155;28;20694;-71
2022/05/19 02:21:49;;;;;;;4.83;3.73;;;11.70;99.10;;;;;;4196935;28;20308;-71
2022/05/19 02:23:52;;;;;;;4.60;3.27;;;11.70;99.10;;;;;;4193668;28;20216;-71
2022/05/19 02:25:53;;;;;;;5.17;3.73;;;11.70;99.10;;;;;;4195748;28;20633;-71
2022/05/19 02:28:09;;;;;;;4.50;3.50;;;11.70;99.10;;;;;;4196687;28;20188;-71
2022/05/19 02:30:19;;;;;;;4.27;3.67;;;11.70;99.30;;;;;;4196677;28;20188;-71
2022/05/19 02:32:20;;;;;;;4.40;3.37;;;11.60;99.10;;;;;;4196912;28;20218;-71
2022/05/19 02:34:20;;;;;;;4.07;3.40;;;11.60;99.40;;;;;;4196205;28;20175;-71
2022/05/19 02:36:21;;;;;;;5.40;3.73;;;11.50;99.80;;;;;;4195793;28;20183;-71
2022/05/19 02:38:22;;;;;;;6.13;3.67;;;11.50;99.80;;;;;;4195304;28;20667;-71
2022/05/19 02:40:26;;;;;;;4.40;3.60;;;11.50;99.90;;;;;;4196632;28;20180;-70
2022/05/19 02:42:27;;;;;;;5.63;3.87;;;11.50;99.90;;;;;;4196491;28;20526;-70
2022/05/19 02:44:27;;;;;;;4.63;3.50;;;11.50;99.80;;;;;;4197067;28;20262;-71
2022/05/19 02:46:28;;;;;;;4.03;3.40;;;11.50;99.50;;;;;;4195716;28;20262;-71
2022/05/19 02:48:29;;;;;;;5.50;3.80;;;11.50;99.70;;;;;;4196594;28;20187;-71
2022/05/19 02:50:30;;;;;;;4.30;3.90;;;11.50;99.70;;;;;;4196365;28;20180;-71
2022/05/19 02:52:31;;;;;;;4.53;3.67;;;11.50;99.60;;;;;;4196360;28;20207;-71
2022/05/19 02:54:32;;;;;;;4.10;3.70;;;11.40;99.70;;;;;;4196278;28;20168;-71
2022/05/19 02:56:32;;;;;;;4.87;4.00;;;11.50;99.60;;;;;;4195602;28;20180;-71
2022/05/19 02:58:33;;;;;;;4.70;3.83;;;11.50;99.60;;;;;;4196357;28;20179;-71
2022/05/19 03:00:34;;;;;;;5.17;3.30;;;11.40;99.60;;;;;;4196537;28;20179;-71
2022/05/19 03:02:35;;;;;;;4.70;4.10;;;11.50;99.80;;;;;;4196109;28;20235;-71
2022/05/19 03:04:36;;;;;;;5.20;3.87;;;11.50;99.80;;;;;;4196388;28;20206;-71
2022/05/19 03:06:36;;;;;;;4.67;3.30;;;11.40;99.60;;;;;;4195073;28;20190;-71
2022/05/19 03:08:37;;;;;;;4.73;3.53;;;11.40;99.90;;;;;;4211806;28;20587;-71
2022/05/19 03:10:39;;;;;;;4.87;3.20;;;11.30;99.90;;;;;;4196533;28;20184;-71
2022/05/19 03:12:40;;;;;;;4.80;3.40;;;11.30;99.90;;;;;;4196390;28;20356;-71
2022/05/19 03:14:41;;;;;;;5.43;3.37;;;11.30;99.90;;;;;;4196130;28;20175;-72
2022/05/19 03:16:42;;;;;;;4.53;3.53;;;11.30;99.90;;;;;;4195337;28;20176;-71
2022/05/19 03:18:42;;;;;;;3.63;3.27;;;11.40;99.90;;;;;;4195843;28;20175;-71
2022/05/19 03:20:43;;;;;;;5.40;3.43;;;11.40;99.90;;;;;;4195781;28;20236;-71
2022/05/19 03:22:43;;;;;;;4.63;3.20;;;11.40;99.90;;;;;;4195727;28;20205;-71
2022/05/19 03:24:44;;;;;;;4.20;3.60;;;11.40;99.90;;;;;;4195786;28;20171;-71
2022/05/19 03:26:44;;;;;;;6.77;3.30;;;11.30;99.30;;;;;;4194992;28;20175;-71
2022/05/19 03:28:45;;;;;;;4.10;3.63;;;11.30;99.60;;;;;;4195599;28;20187;-71
2022/05/19 03:30:46;;;;;;;5.20;3.60;;;11.30;99.90;;;;;;4195409;28;20540;-71
2022/05/19 03:32:46;;;;;;;3.60;3.30;;;11.30;99.90;;;;;;4196131;28;20237;-71
2022/05/19 03:34:47;;;;;;;4.10;3.70;;;11.30;99.90;;;;;;4195592;28;20210;-72
2022/05/19 03:36:49;;;;;;;5.23;3.47;;;11.40;99.90;;;;;;4195082;28;20189;-71
2022/05/19 03:38:49;;;;;;;3.90;3.53;;;11.30;99.90;;;;;;4194283;28;20578;-71
2022/05/19 03:40:50;;;;;;;5.60;3.23;;;11.40;99.90;;;;;;4195625;28;20170;-71
2022/05/19 03:42:50;;;;;;;3.50;3.20;;;11.40;99.90;;;;;;4196247;28;20216;-71
2022/05/19 03:44:51;;;;;;;5.33;3.20;;;11.40;99.90;;;;;;4196255;28;20883;-71
2022/05/19 03:46:51;;;;;;;5.00;3.30;;;11.40;99.90;;;;;;4194702;28;20183;-71
2022/05/19 03:48:53;;;;;;;3.80;3.30;;;11.40;99.90;;;;;;4196032;28;20187;-71
2022/05/19 03:50:54;;;;;;;5.10;3.47;;;11.50;99.80;;;;;;4195864;28;20550;-71
2022/05/19 03:52:54;;;;;;;4.40;3.40;;;11.50;99.60;;;;;;4195922;28;20199;-70
2022/05/19 03:54:55;;;;;;;5.30;3.23;;;11.50;99.40;;;;;;4196404;28;20174;-71
2022/05/19 03:56:55;;;;;;;5.00;3.23;;;11.50;99.30;;;;;;4195053;28;20180;-71
2022/05/19 03:58:56;;;;;;;4.63;3.30;;;11.50;99.40;;;;;;4196141;28;20184;-71
2022/05/19 04:00:57;;;;;;;3.93;3.37;;;11.50;99.50;;;;;;4195895;28;20201;-71
2022/05/19 04:02:58;;;;;;;4.00;3.60;;;11.60;99.20;;;;;;4196082;28;20543;-71
2022/05/19 04:04:59;;;;;;;3.83;3.43;;;11.50;99.40;;;;;;4195828;28;20620;-71
2022/05/19 04:07:00;;;;;;;3.43;3.10;;;11.50;99.60;;;;;;4195295;28;20183;-71
2022/05/19 04:09:03;;;;;;;3.40;3.00;;;11.50;99.70;;;;;;4195577;28;20180;-71
2022/05/19 04:11:04;;;;;;;4.63;3.70;;;11.60;99.60;;;;;;4195199;28;20175;-71
2022/05/19 04:13:05;;;;;;;3.60;3.30;;;11.60;98.70;;;;;;4195139;28;20207;-71
2022/05/19 04:15:06;;;;;;;3.77;3.40;;;11.60;99.10;;;;;;4194941;28;20171;-71
2022/05/19 04:17:07;;;;;;;4.53;3.80;;;11.60;99.00;;;;;;4194613;28;20206;-71
2022/05/19 04:19:07;;;;;;;4.43;4.03;;;11.50;98.70;;;;;;4191743;28;20207;-71
2022/05/19 04:21:08;;;;;;;3.47;3.13;;;11.60;99.10;;;;;;4194409;28;20223;-71
2022/05/19 04:23:09;;;;;;;5.43;3.60;;;11.70;98.80;;;;;;4194996;28;20194;-71
2022/05/19 04:25:11;;;;;;;5.43;3.10;;;11.70;98.70;;;;;;4195077;28;20186;-71
2022/05/19 04:27:13;;;;;;;5.50;3.07;;;11.70;98.70;;;;;;4195103;28;20708;-71
2022/05/19 04:29:13;;;;;;;3.40;3.10;;;11.80;98.60;;;;;;4195077;28;20202;-71
2022/05/19 04:31:14;;;;;;;4.33;3.93;;;11.90;98.60;;;;;;4195262;28;20198;-71
2022/05/19 04:33:14;;;;;;;4.17;3.60;;;11.90;98.30;;;;;;4195302;28;20211;-71
2022/05/19 04:35:16;;;;;;;4.30;3.50;;;11.90;98.30;;;;;;4195390;28;20244;-71
2022/05/19 04:37:16;;;;;;;3.43;3.13;;;11.90;98.50;;;;;;4195813;28;20688;-71
2022/05/19 04:39:17;;;;;;;4.10;3.40;;;11.90;98.40;;;;;;4196222;28;20187;-71
2022/05/19 04:41:17;;;;;;;3.30;3.00;;;12.00;98.10;;;;;;4196427;28;20203;-71
2022/05/19 04:43:21;;;;;;;3.93;3.17;;;12.10;97.80;;;;;;4196233;28;20253;-71
2022/05/19 04:45:22;;;;;;;3.80;3.50;;;12.20;97.50;;;;;;4195775;28;20202;-71
2022/05/19 04:47:23;;;;;;;4.00;3.13;;;12.30;97.60;;;;;;4196315;28;20180;-71
2022/05/19 04:49:23;;;;;;;5.10;3.67;;;12.30;97.20;;;;;;4195977;28;20666;-71
2022/05/19 04:51:24;;;;;;;4.70;3.63;;;12.40;97.20;;;;;;4195866;28;20200;-71
2022/05/19 04:53:26;;;;;;;3.70;3.40;;;12.40;96.90;;;;;;4195663;28;20204;-70
2022/05/19 04:55:27;;;;;;;3.90;3.37;;;12.40;97.00;;;;;;4194917;28;20221;-71
2022/05/19 04:57:28;;;;;;;3.77;3.37;;;12.50;96.80;;;;;;4196650;28;20176;-71
2022/05/19 04:59:28;;;;;;;5.90;3.63;;;12.50;96.70;;;;;;4198701;28;20685;-71
2022/05/19 05:01:29;;;;;;;6.03;3.80;;;12.70;96.40;;;;;;4198156;28;20294;-71
2022/05/19 05:03:29;;;;;;;4.57;4.00;;;12.80;95.80;;;;;;4198668;28;20176;-71
2022/05/19 05:05:30;;;;;;;4.83;3.77;;;12.80;95.20;;;;;;4198099;28;20180;-71
2022/05/19 05:07:30;;;;;;;16.43;4.50;;;13.00;95.30;;;;;;4197685;28;20183;-70
2022/05/19 05:09:31;;;;;;;15.07;3.80;;;13.10;94.80;;;;;;4197842;28;20256;-71
2022/05/19 05:11:32;;;;;;;17.27;4.00;;;13.20;94.80;;;;;;4198106;28;20199;-71
2022/05/19 05:13:33;;;;;;;8.00;3.80;;;13.30;94.40;;;;;;4197674;28;20213;-71
2022/05/19 05:15:34;;;;;;;10.33;3.93;;;13.40;94.30;;;;;;4197162;28;20176;-70
2022/05/19 05:17:34;;;;;;;3.57;2.90;;;13.50;94.20;;;;;;4197705;28;20175;-71
2022/05/19 05:19:35;;;;;;;5.87;3.40;;;13.60;94.40;;;;;;4197770;28;20176;-71
2022/05/19 05:21:35;;;;;;;3.10;2.70;;;13.60;94.10;;;;;;4197762;28;20629;-70
2022/05/19 05:23:36;;;;;;;4.97;2.97;;;13.70;94.00;;;;;;4197604;28;20187;-71
2022/05/19 05:25:37;;;;;;;3.50;2.90;;;13.90;93.80;;;;;;4197049;28;20226;-71
2022/05/19 05:27:37;;;;;;;6.80;2.40;;;14.00;93.40;;;;;;4197600;28;20176;-71
2022/05/19 05:29:38;;;;;;;4.27;2.90;;;14.30;92.60;;;;;;4197833;28;20262;-71
2022/05/19 05:31:39;;;;;;;3.43;2.90;;;14.30;92.60;;;;;;4197929;28;20210;-71
2022/05/19 05:33:39;;;;;;;5.70;2.70;;;14.30;92.80;;;;;;4197699;28;20572;-71
2022/05/19 05:35:40;;;;;;;5.20;3.43;;;14.50;92.90;;;;;;4197126;28;20190;-71
2022/05/19 05:37:41;;;;;;;7.03;3.90;;;14.60;92.70;;;;;;4196715;28;20265;-71
2022/05/19 05:39:42;;;;;;;3.80;3.03;;;14.70;90.90;;;;;;4198312;28;20186;-70
2022/05/19 05:41:42;;;;;;;4.10;3.13;;;14.90;91.00;;;;;;4198330;28;20200;-71
2022/05/19 05:43:43;;;;;;;6.57;3.50;;;14.90;91.30;;;;;;4199075;28;20322;-71
2022/05/19 05:45:45;;;;;;;5.37;3.60;;;15.00;91.00;;;;;;4196902;28;20214;-71
2022/05/19 05:47:45;;;;;;;4.87;3.23;;;15.10;90.80;;;;;;4197599;28;20183;-71
2022/05/19 05:49:46;;;;;;;6.27;3.93;;;15.20;91.20;;;;;;4197546;28;20240;-71
2022/05/19 05:51:48;;;;;;;4.97;3.43;;;15.50;90.40;;;;;;4197511;28;20211;-71
2022/05/19 05:53:48;;;;;;;11.73;3.67;;;15.50;90.30;;;;;;4197456;28;20230;-71
2022/05/19 05:55:49;;;;;;;7.30;3.83;;;15.60;90.40;;;;;;4196787;28;20190;-71
2022/05/19 05:57:49;;;;;;;6.83;3.43;;;15.60;90.40;;;;;;4197414;28;20249;-71
2022/05/19 05:59:50;;;;;;;7.53;3.83;;;15.70;90.00;;;;;;4196062;28;20181;-71
2022/05/19 06:01:50;;;;;;;5.40;3.40;;;15.70;88.80;;;;;;4197324;28;20204;-71
2022/05/19 06:03:51;;;;;;;4.90;3.40;;;15.70;90.60;;;;;;4197084;28;20183;-71
2022/05/19 06:05:51;;;;;;;6.17;3.00;;;15.70;90.20;;;;;;4196677;28;20171;-71
2022/05/19 06:07:52;;;;;;;7.47;3.40;;;15.90;89.70;;;;;;4197389;28;20692;-71
2022/05/19 06:09:53;;;;;;;5.37;3.27;;;16.10;89.40;;;;;;4196285;28;20187;-71
2022/05/19 06:11:54;;;;;;;5.13;3.37;;;16.00;89.10;;;;;;4197111;28;20195;-71
2022/05/19 06:13:54;;;;;;;6.70;3.43;;;16.10;88.80;;;;;;4196860;28;20214;-71
2022/05/19 06:15:55;;;;;;;5.00;2.93;;;16.20;90.30;;;;;;4196321;28;20175;-71
2022/05/19 06:17:55;;;;;;;8.20;3.20;;;16.30;89.90;;;;;;4196893;28;20270;-71
2022/05/19 06:19:56;;;;;;;5.87;3.67;;;16.40;88.00;;;;;;4196913;28;20187;-71
2022/05/19 06:21:56;;;;;;;5.07;3.43;;;16.50;87.30;;;;;;4197218;28;20196;-71
2022/05/19 06:23:57;;;;;;;4.37;3.40;;;16.50;89.00;;;;;;4196912;28;20187;-71
2022/05/19 06:25:57;;;;;;;5.23;3.40;;;16.70;89.10;;;;;;4196244;28;20171;-71
2022/05/19 06:28:00;;;;;;;5.00;3.30;;;16.60;89.10;;;;;;4196724;28;20195;-71
2022/05/19 06:30:00;;;;;;;4.93;3.50;;;16.60;89.70;;;;;;4196668;28;20310;-71
2022/05/19 06:32:01;;;;;;;5.33;3.03;;;17.00;88.00;;;;;;4196632;28;20207;-71
2022/05/19 06:34:02;;;;;;;4.80;3.23;;;17.10;87.90;;;;;;4195434;28;20345;-71
2022/05/19 06:36:09;;;;;;;4.93;2.87;;;17.20;88.90;;;;;;4193954;28;20194;-71
2022/05/19 06:38:11;;;;;;;3.40;2.20;;;17.70;85.20;;;;;;4196512;28;20188;-71
2022/05/19 06:40:15;;;;;;;10.07;2.97;;;18.00;83.30;;;;;;4196474;28;20734;-71
2022/05/19 06:42:16;;;;;;;7.00;2.47;;;18.50;79.60;;;;;;4196409;28;20203;-71
2022/05/19 06:44:17;;;;;;;3.80;2.77;;;18.80;75.80;;;;;;4196416;28;20168;-71
2022/05/19 06:46:17;;;;;;;3.87;2.40;;;19.10;73.40;;;;;;4195963;28;20164;-71
2022/05/19 06:48:18;;;;;;;4.83;2.57;;;19.60;70.60;;;;;;4196673;28;20225;-71
2022/05/19 06:50:21;;;;;;;6.00;2.50;;;20.00;68.80;;;;;;4196334;28;20254;-71
2022/05/19 06:52:30;;;;;;;5.87;2.27;;;20.20;68.80;;;;;;4194621;28;20225;-71
2022/05/19 06:54:31;;;;;;;5.10;2.63;;;20.30;67.60;;;;;;4196064;28;20722;-71
2022/05/19 06:56:33;;;;;;;3.80;2.67;;;20.60;67.00;;;;;;4195718;28;20202;-71
2022/05/19 06:58:34;;;;;;;6.10;2.60;;;20.70;65.80;;;;;;4196203;28;20195;-71
2022/05/19 07:00:35;;;;;;;3.43;2.33;;;21.10;62.90;;;;;;4195726;28;20234;-71
2022/05/19 07:02:36;;;;;;;5.93;3.10;;;21.50;61.30;;;;;;4195902;28;20646;-71
2022/05/19 07:04:38;;;;;;;9.93;3.87;;;21.60;59.80;;;;;;4194613;28;20233;-71
2022/05/19 07:06:38;;;;;;;6.50;4.27;;;21.90;57.70;;;;;;4195531;28;20601;-71
2022/05/19 07:08:40;;;;;;;6.97;3.27;;;22.00;57.90;;;;;;4196023;28;20207;-71
2022/05/19 07:10:40;;;;;;;9.50;4.13;;;22.20;55.70;;;;;;4196043;28;20194;-71
2022/05/19 07:12:43;;;;;;;5.53;3.10;;;22.30;55.10;;;;;;4195825;28;20207;-71
2022/05/19 07:14:44;;;;;;;5.73;3.13;;;22.40;54.40;;;;;;4195987;28;20164;-71
2022/05/19 07:16:46;;;;;;;5.70;2.80;;;22.50;54.70;;;;;;4195224;28;20164;-71
2022/05/19 07:18:47;;;;;;;7.63;2.13;;;22.50;55.30;;;;;;4195761;28;20208;-70
2022/05/19 07:20:48;;;;;;;2.57;2.27;;;22.60;50.90;;;;;;4195672;28;20658;-70
2022/05/19 07:22:49;;;;;;;4.87;2.43;;;22.70;49.70;;;;;;4196037;28;20286;-70
2022/05/19 07:24:51;;;;;;;7.00;2.47;;;22.80;49.20;;;;;;4195899;28;20176;-70
2022/05/19 07:26:54;;;;;;;2.53;2.13;;;23.00;47.80;;;;;;4195031;28;20179;-70
2022/05/19 07:28:54;;;;;;;3.13;2.20;;;23.10;49.30;;;;;;4195673;28;20639;-70
2022/05/19 07:30:55;;;;;;;12.03;2.90;;;23.20;47.60;;;;;;4195496;28;20186;-70
2022/05/19 07:32:56;;;;;;;3.57;2.50;;;23.20;48.30;;;;;;4195403;28;20207;-70
2022/05/19 07:34:56;;;;;;;4.73;2.40;;;23.40;46.60;;;;;;4195471;28;20175;-71
2022/05/19 07:36:58;;;;;;;3.03;2.20;;;23.30;45.80;;;;;;4195245;28;20180;-70
2022/05/19 07:39:02;;;;;;;5.23;2.20;;;23.40;46.00;;;;;;4195543;28;21005;-70
2022/05/19 07:41:03;;;;;;;2.87;2.20;;;23.50;46.60;;;;;;4195465;28;20187;-70
2022/05/19 07:45:23;;;;;;;4.37;2.47;;;23.70;45.20;;;;;;4195089;28;20182;-70
2022/05/19 07:47:24;;;;;;;5.10;2.33;;;23.70;43.30;;;;;;4195504;28;20180;-70
2022/05/19 07:49:25;;;;;;;3.23;1.93;;;23.50;43.70;;;;;;4195421;28;20581;-70
2022/05/19 07:51:31;;;;;;;5.80;2.67;;;23.50;43.10;;;;;;4195633;28;20268;-70
2022/05/19 07:53:32;;;;;;;7.47;2.33;;;23.50;43.60;;;;;;4195530;28;20195;-71
2022/05/19 07:55:32;;;;;;;5.20;2.20;;;23.50;43.00;;;;;;4184554;28;20187;-69
2022/05/19 07:57:33;;;;;;;4.17;2.10;;;23.50;42.90;;;;;;4190290;28;20282;-71
2022/05/19 07:59:34;;;;;;;2.83;1.97;;;23.50;42.80;;;;;;4191258;28;20180;-69
2022/05/19 08:01:36;;;;;;;4.50;1.87;;;23.30;42.80;;;;;;4191747;28;20320;-69
2022/05/19 08:03:36;;;;;;;5.33;2.07;;;23.60;43.40;;;;;;4190765;28;20270;-70
2022/05/19 08:05:37;;;;;;;2.97;2.00;;;23.70;42.90;;;;;;4190679;28;20744;-70
2022/05/19 08:07:38;;;;;;;8.33;2.20;;;23.70;42.70;;;;;;4191659;28;20248;-69
2022/05/19 08:11:57;;;;;;;3.47;2.30;;;23.70;42.40;;;;;;4190058;28;20253;-69
2022/05/19 08:16:17;;;;;;;4.33;2.20;;;24.00;42.10;;;;;;4189891;28;20202;-68
2022/05/19 08:18:21;;;;;;;4.40;2.10;;;24.20;42.40;;;;;;4190527;28;20184;-69
2022/05/19 08:20:22;;;;;;;9.30;2.30;;;24.30;41.00;;;;;;4191171;28;20261;-67
2022/05/19 08:22:22;;;;;;;2.70;1.90;;;24.40;40.60;;;;;;4191672;28;20286;-67
2022/05/19 08:24:25;;;;;;;3.17;2.10;;;24.20;39.00;;;;;;4191393;28;20232;-68
2022/05/19 08:26:26;;;;;;;5.30;2.10;;;24.20;39.40;;;;;;4190264;28;20195;-67
2022/05/19 08:28:29;;;;;;;3.27;2.03;;;24.30;39.40;;;;;;4191705;28;20180;-70
2022/05/19 08:30:30;;;;;;;2.77;1.83;;;24.30;38.50;;;;;;4191017;28;20171;-71
2022/05/19 08:32:30;;;;;;;3.03;2.03;;;24.40;38.30;;;;;;4191241;28;20953;-70
2022/05/19 08:34:31;;;;;;;3.23;2.20;;;24.40;38.40;;;;;;4191850;28;20686;-70
2022/05/19 08:36:31;;;;;;;3.60;1.90;;;24.40;37.10;;;;;;4193273;28;20171;-69
2022/05/19 08:38:32;;;;;;;3.73;1.97;;;24.50;36.80;;;;;;4194481;28;20710;-68
2022/05/19 08:40:37;;;;;;;4.13;2.33;;;24.60;37.20;;;;;;4194514;28;20183;-68
2022/05/19 08:42:45;;;;;;;5.80;2.37;;;24.70;37.00;;;;;;4194305;28;20267;-68
2022/05/19 08:44:53;;;;;;;3.50;2.13;;;24.70;36.60;;;;;;4194610;28;20361;-69
2022/05/19 08:46:57;;;;;;;2.87;2.17;;;24.70;37.00;;;;;;4193971;28;20189;-67
2022/05/19 08:49:19;;;;;;;6.10;1.90;;;24.70;36.50;;;;;;4194403;28;20537;-68
2022/05/19 08:51:25;;;;;;;3.70;2.30;;;24.60;36.60;;;;;;4194112;28;20203;-67
2022/05/19 08:53:29;;;;;;;3.30;2.23;;;24.60;35.80;;;;;;4193959;28;20188;-68
2022/05/19 08:55:30;;;;;;;3.57;2.13;;;24.70;36.10;;;;;;4193596;28;20176;-68
2022/05/19 08:57:46;;;;;;;4.60;2.30;;;24.70;36.80;;;;;;4194322;28;20616;-67
2022/05/19 08:59:57;;;;;;;3.17;1.77;;;24.90;35.70;;;;;;4193874;28;20186;-68
2022/05/19 09:02:05;;;;;;;3.37;2.10;;;24.70;36.50;;;;;;4194653;28;20278;-68
2022/05/19 09:04:52;;;;;;;6.53;2.40;;;24.50;36.00;;;;;;4194635;28;20207;-66
2022/05/19 09:09:50;;;;;;;7.27;2.10;;;24.90;37.00;;;;;;4194390;28;20179;-67
2022/05/19 09:11:59;;;;;;;3.47;2.17;;;24.60;37.30;;;;;;4194130;28;20203;-67
2022/05/19 09:14:13;;;;;;;4.47;2.10;;;24.50;37.20;;;;;;4194436;28;20244;-67
2022/05/19 09:16:17;;;;;;;3.00;2.07;;;24.70;37.40;;;;;;4193755;28;20881;-67
2022/05/19 09:18:26;;;;;;;2.20;1.87;;;24.90;36.80;;;;;;4194194;28;20647;-67
2022/05/19 09:20:39;;;;;;;2.73;2.13;;;24.90;37.40;;;;;;4194067;28;20262;-67
2022/05/19 09:22:40;;;;;;;4.50;2.40;;;24.90;35.00;;;;;;4194424;28;20322;-67
2022/05/19 09:24:44;;;;;;;4.80;2.60;;;24.80;37.60;;;;;;4194065;28;20294;-67
2022/05/19 09:26:47;;;;;;;4.53;2.20;;;24.70;36.40;;;;;;4193713;28;20179;-70
2022/05/19 09:28:55;;;;;;;4.80;2.57;;;24.90;36.30;;;;;;4194158;28;20549;-69
2022/05/19 09:30:58;;;;;;;3.73;2.13;;;25.00;36.30;;;;;;4194184;28;20172;-70
2022/05/19 09:32:58;;;;;;;3.87;2.10;;;25.30;34.90;;;;;;4194223;28;20192;-68
2022/05/19 09:35:17;;;;;;;10.53;2.60;;;25.40;35.10;;;;;;4193603;28;20226;-69
2022/05/19 09:37:37;;;;;;;4.37;2.50;;;25.50;34.00;;;;;;4194155;28;20232;-68
2022/05/19 09:39:53;;;;;;;3.73;1.93;;;25.30;34.00;;;;;;4194312;28;20160;-68
2022/05/19 09:41:55;;;;;;;3.07;2.27;;;25.30;34.60;;;;;;4193846;28;20542;-70
2022/05/19 09:43:58;;;;;;;5.37;1.93;;;25.60;35.00;;;;;;4194257;28;20602;-69
2022/05/19 09:46:14;;;;;;;5.30;2.50;;;25.80;34.80;;;;;;4196465;28;20203;-68
2022/05/19 09:48:22;;;;;;;3.17;2.23;;;25.90;34.10;;;;;;4196751;28;20787;-68
2022/05/19 09:50:29;;;;;;;5.97;2.27;;;26.00;34.30;;;;;;4196862;28;20216;-67
2022/05/19 09:52:32;;;;;;;3.60;2.33;;;26.10;33.70;;;;;;4196810;28;20233;-69
2022/05/19 09:54:34;;;;;;;5.53;2.40;;;26.00;34.20;;;;;;4196758;28;20657;-68
2022/05/19 09:56:50;;;;;;;4.37;2.17;;;25.90;34.00;;;;;;4196012;28;20207;-68
2022/05/19 09:59:02;;;;;;;4.70;2.40;;;25.90;34.00;;;;;;4196656;28;20252;-67
2022/05/19 10:01:07;;;;;;;5.97;2.47;;;26.00;34.50;;;;;;4196640;28;20651;-69
2022/05/19 10:03:22;;;;;;;4.10;2.37;;;26.00;33.90;;;;;;4196779;28;20175;-67
2022/05/19 10:05:32;;;;;;;3.50;2.70;;;25.80;34.00;;;;;;4195877;28;20713;-71
2022/05/19 10:07:37;;;;;;;4.37;2.60;;;25.70;33.90;;;;;;4197568;28;20597;-68
2022/05/19 10:09:42;;;;;;;7.70;2.63;;;25.80;33.70;;;;;;4208945;28;20241;-68
2022/05/19 10:11:50;;;;;;;4.37;2.53;;;25.60;32.60;;;;;;4198373;28;20310;-68
2022/05/19 10:13:55;;;;;;;6.17;2.57;;;25.70;33.10;;;;;;4210614;28;20232;-67
2022/05/19 10:16:03;;;;;;;6.03;2.50;;;26.00;33.80;;;;;;4197570;28;20214;-68
2022/05/19 10:18:34;;;;;;;4.13;2.57;;;26.10;32.60;;;;;;4196247;28;20258;-68
2022/05/19 10:20:46;;;;;;;3.67;1.90;;;26.20;32.80;;;;;;4186891;28;20219;-69
2022/05/19 10:23:02;;;;;;;2.97;2.20;;;26.10;32.10;;;;;;4207822;28;20194;-68
2022/05/19 10:25:08;;;;;;;2.50;1.90;;;26.20;32.70;;;;;;4203709;28;20210;-68
2022/05/19 10:32:53;;;;;;;3.93;1.93;;;26.90;30.40;;;;;;4190406;28;21012;-67
2022/05/19 10:34:56;;;;;;;3.50;2.30;;;27.10;30.80;;;;;;4201068;28;20178;-67
2022/05/19 10:37:27;;;;;;;6.13;2.13;;;27.80;29.80;;;;;;4202269;28;20171;-67
2022/05/19 10:39:46;;;;;;;11.53;2.67;;;28.50;29.80;;;;;;4201694;28;20179;-66
2022/05/19 10:42:02;;;;;;;5.30;2.47;;;28.30;28.40;;;;;;4209555;28;20656;-67
2022/05/19 10:44:11;;;;;;;5.50;2.50;;;28.60;28.50;;;;;;4197175;28;20179;-67
2022/05/19 10:46:15;;;;;;;6.37;2.30;;;28.50;28.80;;;;;;4195803;28;20156;-67
2022/05/19 10:48:36;;;;;;;4.47;2.27;;;28.40;29.20;;;;;;4211727;28;20175;-67
2022/05/19 10:50:58;;;;;;;3.93;2.40;;;28.50;29.60;;;;;;4199638;28;20178;-67
2022/05/19 10:53:16;;;;;;;5.43;2.83;;;28.90;28.80;;;;;;4204823;28;20233;-67
2022/05/19 10:55:44;;;;;;;5.10;2.57;;;29.00;28.80;;;;;;4199350;28;20208;-67
2022/05/19 10:57:56;;;;;;;5.50;2.60;;;29.20;27.80;;;;;;4206997;28;20183;-67
2022/05/19 11:00:11;;;;;;;4.70;2.30;;;29.40;27.70;;;;;;4194409;28;20179;-67